Terminal Aerodrome Forecast
Issued by NWS

Home | Current Version | Previous Version | Text Only | Print | Product List | Glossary On
Versions: 1 2 3 4 5 6 7 8 9 10 11 12 13 14 15 16 17 18 19 20 21 22 23 24 25 26 27 28 29 30 31 32 33 34 35 36 37 38 39 40
067
FTAK31 PAFA 200018 CCB
TAFATA
TAF COR
PATA 200018Z 2000/2024 25006KT P6SM -SN BKN035 OVC090
     FM200900 28004KT P6SM -SHSN BKN040=

USA.gov is the U.S. government's official web portal to all federal, state and local government web resources and services.